Time;durP1;ratioP1;P1;durP2;ratioP2;P2;SDS_P1;SDS_P2;PMS_P1;PMS_P2;Temp;Humidity;BMP_temperature;BMP_pressure;BME280_temperature;BME280_humidity;BME280_pressure;Samples;Min_cycle;Max_cycle;Signal;HPM_P1;HPM_P2
2022/12/30 00:01:06;;;;;;;1999.90;999.90;;;5.70;99.90;;;;;;5038678;28;20040;-83
2022/12/30 00:03:32;;;;;;;1999.90;999.90;;;5.70;99.90;;;;;;5044497;28;20027;-83
2022/12/30 00:05:57;;;;;;;1999.90;999.90;;;5.60;99.90;;;;;;5048123;28;20501;-82
2022/12/30 00:11:07;;;;;;;1999.90;999.90;;;5.60;99.90;;;;;;5044169;28;20143;-82
2022/12/30 00:34:05;;;;;;;1999.90;999.90;;;5.50;99.90;;;;;;5047405;28;20108;-79
2022/12/30 00:36:33;;;;;;;1999.90;999.90;;;5.60;99.90;;;;;;5044911;28;20095;-84
2022/12/30 00:38:58;;;;;;;1999.90;999.90;;;5.50;99.90;;;;;;5046241;28;20119;-82
2022/12/30 00:44:08;;;;;;;1999.90;999.90;;;5.60;99.90;;;;;;5046345;28;20052;-81
2022/12/30 00:46:36;;;;;;;1999.90;999.90;;;5.60;99.90;;;;;;5047622;28;20483;-80
2022/12/30 00:57:16;;;;;;;1999.90;999.90;;;5.60;99.90;;;;;;5045111;28;20441;-82
2022/12/30 00:59:41;;;;;;;1999.90;999.90;;;5.50;99.90;;;;;;5046585;28;20026;-84
2022/12/30 01:02:07;;;;;;;1999.90;999.90;;;5.60;99.90;;;;;;5046925;28;21638;-83
2022/12/30 01:04:33;;;;;;;1999.90;999.90;;;5.50;99.90;;;;;;5046273;28;20036;-81
2022/12/30 01:06:59;;;;;;;1999.90;999.90;;;5.60;99.90;;;;;;5046365;28;20029;-81
2022/12/30 01:09:24;;;;;;;1999.90;999.90;;;5.50;99.90;;;;;;5047315;28;20040;-84
2022/12/30 01:12:07;;;;;;;1999.90;999.90;;;5.50;99.90;;;;;;5016649;28;20604;-79
2022/12/30 01:14:41;;;;;;;1999.90;999.90;;;5.50;99.90;;;;;;5047040;28;20040;-82
2022/12/30 01:17:08;;;;;;;1999.90;999.90;;;5.50;99.90;;;;;;5044806;28;20052;-81
2022/12/30 01:19:34;;;;;;;1999.90;999.90;;;5.40;99.90;;;;;;5041968;28;20079;-81
2022/12/30 01:22:00;;;;;;;1999.90;999.90;;;5.40;99.90;;;;;;5029626;28;20025;-81
2022/12/30 01:24:25;;;;;;;1999.90;999.90;;;5.30;99.90;;;;;;5047350;28;20640;-80
2022/12/30 01:26:51;;;;;;;1999.90;999.90;;;5.40;99.90;;;;;;5047453;28;20044;-81
2022/12/30 01:29:38;;;;;;;1999.90;999.90;;;5.40;99.90;;;;;;5050578;28;20033;-81
2022/12/30 01:32:06;;;;;;;1999.90;999.90;;;5.40;99.90;;;;;;5027924;28;20033;-80
2022/12/30 01:34:33;;;;;;;1999.90;999.90;;;5.40;99.90;;;;;;5045578;28;20033;-82
2022/12/30 01:36:58;;;;;;;1999.90;999.90;;;5.50;99.90;;;;;;5047879;28;20025;-81
2022/12/30 01:39:24;;;;;;;1999.90;999.90;;;5.50;99.90;;;;;;5050920;28;20075;-79
2022/12/30 01:41:52;;;;;;;1999.90;999.90;;;5.40;99.90;;;;;;5049051;28;20479;-81
2022/12/30 01:44:45;;;;;;;1999.90;999.90;;;5.40;99.90;;;;;;5049515;28;20033;-82
2022/12/30 01:47:17;;;;;;;1999.90;999.90;;;5.40;99.90;;;;;;5034085;28;20568;-84
2022/12/30 01:50:06;;;;;;;1999.90;999.90;;;5.50;99.90;;;;;;5041629;28;20032;-82
2022/12/30 01:52:33;;;;;;;1999.90;999.90;;;5.40;99.90;;;;;;5052982;28;20052;-85
2022/12/30 01:55:04;;;;;;;1999.90;999.90;;;5.50;99.90;;;;;;5041667;28;20052;-84
2022/12/30 01:57:31;;;;;;;1999.90;999.90;;;5.50;99.90;;;;;;5037077;28;20036;-82
2022/12/30 01:59:58;;;;;;;1999.90;999.90;;;5.40;99.90;;;;;;5049616;28;20087;-81
2022/12/30 02:02:24;;;;;;;1999.90;999.90;;;5.50;99.90;;;;;;5049237;28;20032;-81
2022/12/30 02:04:51;;;;;;;1999.90;999.90;;;5.50;99.90;;;;;;5047335;28;20060;-81
2022/12/30 02:07:20;;;;;;;1999.90;999.90;;;5.40;99.90;;;;;;5049921;28;20061;-82
2022/12/30 02:09:47;;;;;;;1999.90;999.90;;;5.50;99.90;;;;;;5050230;28;20040;-81
2022/12/30 02:12:12;;;;;;;1999.90;999.90;;;5.40;99.90;;;;;;5049984;28;20029;-84
2022/12/30 02:14:40;;;;;;;1999.90;999.90;;;5.40;99.90;;;;;;5052767;28;20565;-82
2022/12/30 02:17:27;;;;;;;1999.90;999.90;;;5.40;99.90;;;;;;5050403;28;20033;-79
2022/12/30 02:20:23;;;;;;;1999.90;999.90;;;5.40;99.90;;;;;;5047902;28;20021;-83
2022/12/30 02:23:26;;;;;;;1999.90;999.90;;;5.50;99.90;;;;;;5049372;28;20036;-83
2022/12/30 02:26:21;;;;;;;1999.90;999.90;;;5.40;99.90;;;;;;5051119;28;20093;-82
2022/12/30 02:29:14;;;;;;;1999.90;999.90;;;5.50;99.90;;;;;;5027790;28;20491;-80
2022/12/30 02:32:09;;;;;;;1999.90;999.90;;;5.50;99.90;;;;;;5051394;28;20040;-83
2022/12/30 02:34:41;;;;;;;1999.90;999.90;;;5.40;99.90;;;;;;5048153;28;20036;-82
2022/12/30 02:37:22;;;;;;;1999.90;999.90;;;5.50;99.90;;;;;;5036430;28;20029;-82
2022/12/30 02:39:56;;;;;;;1999.90;999.90;;;5.40;99.90;;;;;;5047998;28;20070;-81
2022/12/30 02:45:39;;;;;;;1999.90;999.90;;;5.30;99.90;;;;;;5051686;28;20557;-81
2022/12/30 02:48:12;;;;;;;1999.90;999.90;;;5.40;99.90;;;;;;5048129;28;20036;-79
2022/12/30 02:53:32;;;;;;;1999.90;999.90;;;5.50;99.90;;;;;;5049149;28;20118;-80
2022/12/30 02:55:58;;;;;;;1999.90;999.90;;;5.40;99.90;;;;;;5037380;28;20033;-82
2022/12/30 02:58:27;;;;;;;1999.90;999.90;;;5.40;99.90;;;;;;5050834;28;20035;-80
2022/12/30 03:04:31;;;;;;;1999.90;999.90;;;5.30;99.90;;;;;;5050325;28;20423;-80
2022/12/30 03:07:25;;;;;;;1999.90;999.90;;;5.40;99.90;;;;;;5050029;28;20037;-79
2022/12/30 03:13:16;;;;;;;1999.90;999.90;;;5.40;99.90;;;;;;5050436;28;20078;-79
2022/12/30 03:15:54;;;;;;;1999.90;999.90;;;5.40;99.90;;;;;;5049990;28;20036;-79
2022/12/30 03:18:22;;;;;;;1999.90;999.90;;;5.40;99.90;;;;;;5050724;28;20021;-79
2022/12/30 03:20:50;;;;;;;1999.90;999.90;;;5.40;99.90;;;;;;5048521;28;20091;-81
2022/12/30 03:28:48;;;;;;;1999.90;999.90;;;5.40;99.90;;;;;;5049112;28;20044;-80
2022/12/30 03:31:15;;;;;;;1999.90;999.90;;;5.30;99.90;;;;;;5039902;28;20060;-80
2022/12/30 03:33:42;;;;;;;1999.90;999.90;;;5.30;99.90;;;;;;5048727;28;20114;-82
2022/12/30 03:36:21;;;;;;;1112.63;577.00;;;5.40;99.90;;;;;;5045158;28;20133;-80
2022/12/30 03:39:00;;;;;;;1999.90;999.90;;;5.40;99.90;;;;;;5045384;28;20048;-80
2022/12/30 03:41:28;;;;;;;1999.90;999.90;;;5.40;99.90;;;;;;5048650;28;20044;-80
2022/12/30 03:43:55;;;;;;;1999.90;999.90;;;5.40;99.90;;;;;;5047008;28;20489;-83
2022/12/30 03:46:27;;;;;;;1999.90;999.90;;;5.40;99.90;;;;;;5047477;28;20155;-81
2022/12/30 03:48:53;;;;;;;1999.90;999.90;;;5.40;99.90;;;;;;5047269;28;20044;-80
2022/12/30 03:51:19;;;;;;;1999.90;999.90;;;5.50;99.90;;;;;;5049999;28;20056;-81
2022/12/30 03:53:45;;;;;;;1999.90;999.90;;;5.60;99.90;;;;;;5038066;28;20657;-79
2022/12/30 03:56:10;;;;;;;1999.90;999.90;;;5.60;99.90;;;;;;5046991;28;20039;-79
2022/12/30 03:58:36;;;;;;;1999.90;999.90;;;5.50;99.90;;;;;;5045857;28;20033;-79
2022/12/30 04:01:02;;;;;;;1999.90;999.90;;;5.50;99.90;;;;;;5037135;28;20061;-80
2022/12/30 04:03:27;;;;;;;1999.90;999.90;;;5.50;99.90;;;;;;5041148;28;20035;-80
2022/12/30 04:05:54;;;;;;;1531.65;767.80;;;5.60;99.90;;;;;;5025999;28;20108;-81
2022/12/30 04:08:21;;;;;;;1999.90;999.90;;;5.60;99.90;;;;;;5027245;28;20025;-80
2022/12/30 04:10:47;;;;;;;1999.90;999.90;;;5.60;99.90;;;;;;5033144;28;20030;-83
2022/12/30 04:13:12;;;;;;;1999.90;999.90;;;5.60;99.90;;;;;;5031668;28;20033;-84
2022/12/30 04:15:38;;;;;;;1999.90;999.90;;;5.60;99.90;;;;;;5024118;28;20045;-80
2022/12/30 04:18:04;;;;;;;1999.90;999.90;;;5.60;99.90;;;;;;5035381;28;20053;-80
2022/12/30 04:20:29;;;;;;;1999.90;999.90;;;5.60;99.90;;;;;;5035322;28;20076;-80
2022/12/30 04:22:58;;;;;;;1999.90;999.90;;;5.50;99.90;;;;;;5032903;28;20030;-83
2022/12/30 04:25:25;;;;;;;1999.90;999.90;;;5.50;99.90;;;;;;5033692;28;20021;-80
2022/12/30 04:27:52;;;;;;;1999.90;999.90;;;5.50;99.90;;;;;;5038755;28;20253;-80
2022/12/30 04:30:18;;;;;;;1999.90;999.90;;;5.60;99.90;;;;;;5027914;28;20521;-81
2022/12/30 04:32:43;;;;;;;1999.90;999.90;;;5.50;99.90;;;;;;5042498;28;20021;-80
2022/12/30 04:35:09;;;;;;;1999.90;999.90;;;5.50;99.90;;;;;;5031299;28;20512;-80
2022/12/30 04:37:35;;;;;;;1999.90;999.90;;;5.50;99.90;;;;;;5031394;28;20033;-80
2022/12/30 04:40:00;;;;;;;1999.90;999.90;;;5.50;99.90;;;;;;5028148;28;20037;-79
2022/12/30 04:42:26;;;;;;;1999.90;999.90;;;5.50;99.90;;;;;;5032305;28;20025;-79
2022/12/30 04:44:51;;;;;;;1999.90;999.90;;;5.50;99.90;;;;;;5034950;28;20025;-84
2022/12/30 04:47:17;;;;;;;1999.90;999.90;;;5.50;99.90;;;;;;5032132;28;20077;-81
2022/12/30 04:49:43;;;;;;;1999.90;999.90;;;5.50;99.90;;;;;;5040001;28;20387;-81
2022/12/30 04:52:08;;;;;;;1999.90;999.90;;;5.50;99.90;;;;;;5031898;28;20539;-79
2022/12/30 04:54:34;;;;;;;1999.90;999.90;;;5.40;99.90;;;;;;5032496;28;20032;-81
2022/12/30 04:57:00;;;;;;;1999.90;999.90;;;5.40;99.90;;;;;;5033263;28;20033;-81
2022/12/30 04:59:25;;;;;;;1067.63;540.90;;;5.50;99.90;;;;;;5032650;28;20114;-80
2022/12/30 05:01:51;;;;;;;1999.90;999.90;;;5.40;99.90;;;;;;5053553;28;20095;-80
2022/12/30 05:04:16;;;;;;;1999.90;999.90;;;5.40;99.90;;;;;;5048360;28;20029;-80
2022/12/30 05:06:43;;;;;;;1999.90;999.90;;;5.40;99.90;;;;;;5049969;28;20033;-81
2022/12/30 05:09:09;;;;;;;1999.90;999.90;;;5.40;99.90;;;;;;5046234;28;20511;-81
2022/12/30 05:11:34;;;;;;;1999.90;999.90;;;5.40;99.90;;;;;;5049028;28;20044;-79
2022/12/30 05:14:00;;;;;;;1999.90;999.90;;;5.30;99.90;;;;;;5053639;28;20064;-79
2022/12/30 05:16:25;;;;;;;1999.90;999.90;;;5.20;99.90;;;;;;5049754;28;20029;-79
2022/12/30 05:18:51;;;;;;;1999.90;999.90;;;5.20;99.90;;;;;;5049756;28;20030;-80
2022/12/30 05:21:17;;;;;;;1999.90;999.90;;;5.10;99.90;;;;;;5049885;28;20745;-79
2022/12/30 05:26:27;;;;;;;1999.90;999.90;;;4.80;99.90;;;;;;5050191;28;20064;-80
2022/12/30 05:28:53;;;;;;;1999.90;999.90;;;4.70;99.90;;;;;;5033180;28;20072;-81
2022/12/30 05:31:21;;;;;;;1999.90;999.90;;;4.60;99.90;;;;;;5051410;28;20025;-79
2022/12/30 05:33:46;;;;;;;1999.90;999.90;;;4.50;99.90;;;;;;5052232;28;20099;-81
2022/12/30 05:36:14;;;;;;;1999.90;999.90;;;4.40;99.90;;;;;;5049080;28;20049;-80
2022/12/30 05:38:40;;;;;;;1999.90;999.90;;;4.30;99.90;;;;;;5034673;28;20028;-80
2022/12/30 05:41:06;;;;;;;1999.90;999.90;;;4.30;99.90;;;;;;5050724;28;20040;-84
2022/12/30 05:43:32;;;;;;;1999.90;999.90;;;4.20;99.90;;;;;;5053472;28;20045;-82
2022/12/30 05:45:57;;;;;;;1999.90;999.90;;;4.20;99.90;;;;;;5050909;28;20063;-80
2022/12/30 05:48:23;;;;;;;1999.90;999.90;;;4.20;99.90;;;;;;5050546;28;20464;-83
2022/12/30 05:50:50;;;;;;;1999.90;999.90;;;4.20;99.90;;;;;;5051631;28;20491;-82
2022/12/30 05:53:16;;;;;;;1999.90;999.90;;;4.10;99.90;;;;;;5053807;28;20052;-82
2022/12/30 05:55:43;;;;;;;1999.90;999.90;;;4.10;99.90;;;;;;5049646;28;20052;-83
2022/12/30 05:58:08;;;;;;;1999.90;999.90;;;4.20;99.90;;;;;;5050463;28;20041;-84
2022/12/30 06:00:35;;;;;;;1999.90;999.90;;;4.30;99.90;;;;;;5051299;28;21177;-80
2022/12/30 06:03:01;;;;;;;1999.90;999.90;;;4.30;99.90;;;;;;5051985;28;20506;-79
2022/12/30 06:05:27;;;;;;;1999.90;999.90;;;4.40;99.90;;;;;;5054231;28;20029;-81
2022/12/30 06:07:52;;;;;;;1999.90;999.90;;;4.50;99.90;;;;;;5051920;28;20025;-80
2022/12/30 06:10:19;;;;;;;1999.90;999.90;;;4.50;99.90;;;;;;5046268;28;20091;-81
2022/12/30 06:12:44;;;;;;;1999.90;999.90;;;4.50;99.90;;;;;;5051240;28;20064;-79
2022/12/30 06:15:10;;;;;;;1999.90;999.90;;;4.40;99.90;;;;;;5050109;28;20061;-82
2022/12/30 06:17:37;;;;;;;1999.90;999.90;;;4.30;99.90;;;;;;5031834;28;20043;-82
2022/12/30 06:20:03;;;;;;;1999.90;999.90;;;4.20;99.90;;;;;;5048663;28;20418;-81
2022/12/30 06:22:28;;;;;;;1999.90;999.90;;;4.00;99.90;;;;;;5052229;28;20116;-83
2022/12/30 06:24:54;;;;;;;1999.90;999.90;;;3.90;99.90;;;;;;5048311;28;20128;-79
2022/12/30 06:27:20;;;;;;;1999.90;999.90;;;3.90;99.90;;;;;;5049872;28;20025;-82
2022/12/30 06:29:47;;;;;;;1999.90;999.90;;;3.90;99.90;;;;;;5048658;28;20041;-80
2022/12/30 06:32:12;;;;;;;1999.90;999.90;;;3.80;99.90;;;;;;5048990;28;20029;-79
2022/12/30 06:34:38;;;;;;;1999.90;999.90;;;3.70;99.90;;;;;;5044434;28;20393;-80
2022/12/30 06:37:03;;;;;;;1999.90;999.90;;;3.70;99.90;;;;;;5048172;28;20148;-83
2022/12/30 06:39:29;;;;;;;1999.90;999.90;;;3.70;99.90;;;;;;5048166;28;20395;-81
2022/12/30 06:41:55;;;;;;;1999.90;999.90;;;3.60;99.90;;;;;;5049542;28;20083;-81
2022/12/30 06:44:20;;;;;;;1999.90;999.90;;;3.60;99.90;;;;;;5048627;28;20234;-81
2022/12/30 06:46:47;;;;;;;1999.90;999.90;;;3.50;99.90;;;;;;5038338;28;20040;-83
2022/12/30 06:49:13;;;;;;;1999.90;999.90;;;3.50;99.90;;;;;;5050428;28;20033;-79
2022/12/30 06:51:39;;;;;;;1999.90;999.90;;;3.50;99.90;;;;;;5048297;28;20091;-81
2022/12/30 06:54:05;;;;;;;1513.10;760.42;;;3.60;99.90;;;;;;5046420;28;20033;-88
2022/12/30 06:56:30;;;;;;;1999.90;999.90;;;3.60;99.90;;;;;;5029831;28;20049;-85
2022/12/30 06:58:56;;;;;;;1999.90;999.90;;;3.50;99.90;;;;;;5018284;28;20025;-83
2022/12/30 07:01:22;;;;;;;1999.90;999.90;;;3.40;99.90;;;;;;5047415;28;20052;-85
2022/12/30 07:03:49;;;;;;;1999.90;999.90;;;3.50;99.90;;;;;;5048838;28;20043;-82
2022/12/30 07:06:14;;;;;;;1999.90;999.90;;;3.40;99.90;;;;;;5026713;28;20032;-80
2022/12/30 07:08:40;;;;;;;1999.90;999.90;;;3.50;99.90;;;;;;5029584;28;20045;-82
2022/12/30 07:11:05;;;;;;;1999.90;999.90;;;3.40;99.90;;;;;;5048799;28;20053;-86
2022/12/30 07:13:31;;;;;;;1999.90;999.90;;;3.30;99.90;;;;;;5042862;28;20508;-80
2022/12/30 07:15:57;;;;;;;1999.90;999.90;;;3.30;99.90;;;;;;5049699;28;20036;-85
2022/12/30 07:18:32;;;;;;;1999.90;999.90;;;3.40;99.90;;;;;;5041124;28;21088;-92
2022/12/30 07:20:58;;;;;;;1999.90;999.90;;;3.40;99.90;;;;;;5047522;28;20033;-81
2022/12/30 07:23:25;;;;;;;1999.90;999.90;;;3.40;99.90;;;;;;5049476;28;20426;-81
2022/12/30 07:25:50;;;;;;;1999.90;999.90;;;3.40;99.90;;;;;;5043229;28;20029;-84
2022/12/30 07:28:16;;;;;;;1999.90;999.90;;;3.40;99.90;;;;;;5046292;28;20083;-81
2022/12/30 07:30:41;;;;;;;1999.90;999.90;;;3.40;99.90;;;;;;5049184;28;20064;-90
2022/12/30 07:33:07;;;;;;;1999.90;999.90;;;3.30;99.90;;;;;;5049839;28;20033;-84
2022/12/30 07:35:33;;;;;;;1999.90;999.90;;;3.30;99.90;;;;;;5051876;28;20505;-82
2022/12/30 07:37:58;;;;;;;1999.90;999.90;;;3.30;99.90;;;;;;5047115;28;20037;-87
2022/12/30 07:40:25;;;;;;;1999.90;999.90;;;3.20;99.90;;;;;;5028514;28;20080;-84
2022/12/30 07:42:51;;;;;;;1999.90;999.90;;;3.20;99.90;;;;;;5048302;28;20032;-87
2022/12/30 07:45:17;;;;;;;1999.90;999.90;;;3.20;99.90;;;;;;5046458;28;20033;-87
2022/12/30 07:47:43;;;;;;;1999.90;999.90;;;3.20;99.90;;;;;;5046417;28;20021;-86
2022/12/30 07:50:10;;;;;;;1999.90;999.90;;;3.30;99.90;;;;;;5049828;28;20104;-85
2022/12/30 07:52:36;;;;;;;1999.90;999.90;;;3.30;99.90;;;;;;5048206;28;20043;-81
2022/12/30 07:55:02;;;;;;;1999.90;999.90;;;3.20;99.90;;;;;;5048269;28;20103;-88
2022/12/30 07:57:29;;;;;;;1999.90;999.90;;;3.20;99.90;;;;;;5032183;28;20438;-86
2022/12/30 07:59:55;;;;;;;1999.90;999.90;;;3.30;99.90;;;;;;5048089;28;20522;-83
2022/12/30 08:02:21;;;;;;;1999.90;999.90;;;3.20;99.90;;;;;;5057953;28;20079;-81
2022/12/30 08:04:47;;;;;;;1999.90;999.90;;;3.30;99.90;;;;;;5056716;28;20052;-80
2022/12/30 08:07:16;;;;;;;1999.90;999.90;;;3.30;99.90;;;;;;5061505;28;20071;-85
2022/12/30 08:09:43;;;;;;;1999.90;999.90;;;3.20;99.90;;;;;;5051562;28;20430;-82
2022/12/30 08:12:09;;;;;;;1999.90;999.90;;;3.30;99.90;;;;;;5057909;28;20028;-79
2022/12/30 08:14:35;;;;;;;1999.90;999.90;;;3.40;99.90;;;;;;5046949;28;20032;-84
2022/12/30 08:17:00;;;;;;;1999.90;999.90;;;3.40;99.90;;;;;;5029235;28;20075;-80
2022/12/30 08:19:27;;;;;;;1999.90;999.90;;;3.40;99.90;;;;;;5030675;28;20037;-83
2022/12/30 08:21:53;;;;;;;1999.90;999.90;;;3.50;99.90;;;;;;5049666;28;20544;-81
2022/12/30 08:24:19;;;;;;;1999.90;999.90;;;3.50;99.90;;;;;;5052219;28;20029;-84
2022/12/30 08:26:44;;;;;;;1999.90;999.90;;;3.50;99.90;;;;;;5049668;28;20044;-82
2022/12/30 08:29:10;;;;;;;1999.90;999.90;;;3.50;99.90;;;;;;5049507;28;20415;-81
2022/12/30 08:31:35;;;;;;;1999.90;999.90;;;3.60;99.90;;;;;;5051148;28;20048;-86
2022/12/30 08:34:01;;;;;;;1999.90;999.90;;;3.70;99.90;;;;;;5047744;28;20116;-83
2022/12/30 08:36:28;;;;;;;1999.90;999.90;;;3.80;99.90;;;;;;5044404;28;20033;-84
2022/12/30 08:38:58;;;;;;;1999.90;999.90;;;3.70;99.90;;;;;;5046546;28;20530;-85
2022/12/30 08:41:27;;;;;;;1999.90;999.90;;;3.80;99.90;;;;;;5049501;28;20025;-86
2022/12/30 08:43:55;;;;;;;1999.90;999.90;;;3.80;99.90;;;;;;5028047;28;20021;-86
2022/12/30 08:46:21;;;;;;;1999.90;999.90;;;3.90;99.90;;;;;;5046644;28;20033;-85
2022/12/30 08:48:48;;;;;;;1999.90;999.90;;;3.90;99.90;;;;;;5059969;28;20111;-85
2022/12/30 08:51:14;;;;;;;1999.90;999.90;;;3.90;99.90;;;;;;5050040;28;20072;-85
2022/12/30 08:53:40;;;;;;;1999.90;999.90;;;4.00;99.90;;;;;;5048642;28;20064;-89
2022/12/30 08:56:15;;;;;;;1999.90;999.90;;;4.10;99.90;;;;;;5053770;28;20032;-83
2022/12/30 08:58:40;;;;;;;1999.90;999.90;;;4.00;99.90;;;;;;5062923;28;20082;-89
2022/12/30 09:01:07;;;;;;;1999.90;999.90;;;4.10;99.90;;;;;;5052792;28;20041;-80
2022/12/30 09:03:42;;;;;;;1999.90;999.90;;;4.20;99.90;;;;;;5049906;28;20059;-87
2022/12/30 09:06:09;;;;;;;1999.90;999.90;;;4.30;99.90;;;;;;5050153;28;20507;-85
2022/12/30 09:08:35;;;;;;;1999.90;999.90;;;4.40;99.90;;;;;;5039818;28;20025;-86
2022/12/30 09:11:07;;;;;;;1999.90;999.90;;;4.50;99.90;;;;;;5052401;28;20040;-82
2022/12/30 09:13:36;;;;;;;1999.90;999.90;;;4.70;99.90;;;;;;5052517;28;20410;-85
2022/12/30 09:16:08;;;;;;;1999.90;999.90;;;4.70;99.90;;;;;;5054149;28;20087;-84
2022/12/30 09:18:34;;;;;;;1999.90;999.90;;;4.80;99.90;;;;;;5052905;28;20029;-80
2022/12/30 09:21:01;;;;;;;1999.90;999.90;;;4.90;99.90;;;;;;5051120;28;20394;-83
2022/12/30 09:23:27;;;;;;;1999.90;999.90;;;4.90;99.90;;;;;;5049833;28;20032;-84
2022/12/30 09:25:53;;;;;;;1999.90;999.90;;;5.00;99.90;;;;;;5046962;28;20033;-82
2022/12/30 09:28:18;;;;;;;1999.90;999.90;;;5.10;99.90;;;;;;5049627;28;20033;-82
2022/12/30 09:30:45;;;;;;;1999.90;999.90;;;5.10;99.90;;;;;;5049971;28;20057;-83
2022/12/30 09:33:10;;;;;;;1999.90;999.90;;;5.20;99.90;;;;;;5048214;28;20091;-83
2022/12/30 09:35:36;;;;;;;1999.90;999.90;;;5.30;99.90;;;;;;5049534;28;20407;-81
2022/12/30 09:38:01;;;;;;;1999.90;999.90;;;5.30;99.90;;;;;;5049292;28;20119;-79
2022/12/30 09:41:06;;;;;;;1999.90;999.90;;;5.30;99.90;;;;;;5042514;28;20396;-80
2022/12/30 09:44:03;;;;;;;1999.90;999.90;;;5.30;99.90;;;;;;5054166;28;20064;-84
2022/12/30 09:46:55;;;;;;;1999.90;999.90;;;5.40;99.90;;;;;;5051734;28;20025;-80
2022/12/30 09:49:42;;;;;;;1999.90;999.90;;;5.30;99.90;;;;;;5036956;28;20033;-80
2022/12/30 09:52:10;;;;;;;1999.90;999.90;;;5.30;99.90;;;;;;5052862;28;20425;-81
2022/12/30 09:54:39;;;;;;;1999.90;999.90;;;5.30;99.90;;;;;;5050172;28;20043;-81
2022/12/30 09:59:56;;;;;;;1999.90;999.90;;;5.40;99.90;;;;;;5049346;28;20028;-83
2022/12/30 10:02:27;;;;;;;1999.90;999.90;;;5.50;99.90;;;;;;5048230;28;20064;-81
2022/12/30 10:04:53;;;;;;;;;;;5.50;99.90;;;;;;5052260;28;20431;-83
2022/12/30 10:07:31;;;;;;;1999.90;999.90;;;5.50;99.90;;;;;;5052055;28;20055;-80
2022/12/30 10:10:11;;;;;;;1999.90;999.90;;;5.60;99.90;;;;;;5048204;28;20116;-83
2022/12/30 10:12:46;;;;;;;1999.90;999.90;;;5.60;99.90;;;;;;5048142;28;20024;-80
2022/12/30 10:15:29;;;;;;;1999.90;999.90;;;5.60;99.90;;;;;;5051038;28;20570;-83
2022/12/30 10:18:16;;;;;;;1999.90;999.90;;;5.60;99.90;;;;;;5029846;28;20128;-81
2022/12/30 10:21:18;;;;;;;1999.90;999.90;;;5.60;99.90;;;;;;5054881;28;20033;-80
2022/12/30 10:23:55;;;;;;;1999.90;999.90;;;5.70;99.90;;;;;;5032482;28;20128;-83
2022/12/30 10:26:24;;;;;;;1999.90;999.90;;;5.90;99.90;;;;;;5046725;28;20497;-81
2022/12/30 10:29:04;;;;;;;1999.90;999.90;;;5.80;99.90;;;;;;5050531;28;20029;-80
2022/12/30 10:31:33;;;;;;;1999.90;999.90;;;5.90;99.90;;;;;;5047151;28;20041;-83
2022/12/30 10:34:15;;;;;;;1999.90;999.90;;;5.80;99.90;;;;;;5048782;28;20044;-80
2022/12/30 10:36:58;;;;;;;1999.90;999.90;;;5.90;99.90;;;;;;5048938;28;20566;-81
2022/12/30 10:39:28;;;;;;;1554.72;793.17;;;5.80;99.90;;;;;;5050205;28;20029;-81
2022/12/30 10:42:15;;;;;;;1999.90;999.90;;;5.80;99.90;;;;;;5047207;28;20036;-84
2022/12/30 10:45:11;;;;;;;1999.90;999.90;;;5.80;99.90;;;;;;5048276;28;20037;-87
2022/12/30 10:48:30;;;;;;;1999.90;999.90;;;5.90;99.90;;;;;;5032175;28;20412;-88
2022/12/30 10:50:56;;;;;;;1999.90;999.90;;;6.00;99.90;;;;;;4987944;28;20113;-87
2022/12/30 10:53:30;;;;;;;1999.90;999.90;;;6.10;99.90;;;;;;5012089;28;20609;-88
2022/12/30 10:55:58;;;;;;;1999.90;999.90;;;6.10;99.90;;;;;;5049404;28;20469;-83
2022/12/30 10:58:53;;;;;;;1999.90;999.90;;;5.80;99.90;;;;;;5046179;28;20116;-88
2022/12/30 11:01:27;;;;;;;1999.90;999.90;;;6.00;99.90;;;;;;5039504;28;20033;-81
2022/12/30 11:03:58;;;;;;;1999.90;999.90;;;6.10;99.90;;;;;;5049096;28;20112;-79
2022/12/30 11:06:27;;;;;;;1999.90;999.90;;;6.20;99.90;;;;;;5052067;28;20025;-81
2022/12/30 11:09:13;;;;;;;1999.90;999.90;;;6.20;99.90;;;;;;5046026;28;20473;-80
2022/12/30 11:14:54;;;;;;;1999.90;999.90;;;6.40;99.90;;;;;;5047185;28;20095;-89
2022/12/30 11:17:26;;;;;;;1999.90;999.90;;;6.30;99.90;;;;;;5051521;28;20032;-84
2022/12/30 11:19:56;;;;;;;793.05;454.77;;;6.30;99.90;;;;;;5046929;28;20033;-79
2022/12/30 11:22:22;;;;;;;1999.90;999.90;;;6.30;99.90;;;;;;5044519;28;20036;-90
2022/12/30 11:25:18;;;;;;;670.05;501.20;;;6.30;99.90;;;;;;5048541;28;20141;-90
2022/12/30 11:27:48;;;;;;;1060.47;944.75;;;6.30;99.90;;;;;;5048798;28;20505;-89
2022/12/30 11:30:34;;;;;;;1999.90;999.90;;;6.30;99.90;;;;;;5089196;27;20114;-75
2022/12/30 11:33:03;;;;;;;1240.97;898.35;;;6.40;99.90;;;;;;5049833;28;20029;-75
2022/12/30 11:35:38;;;;;;;1999.90;999.90;;;6.40;99.90;;;;;;5054079;28;20053;-75
2022/12/30 11:38:27;;;;;;;1999.90;999.90;;;6.60;99.90;;;;;;5057564;28;20037;-75
2022/12/30 11:40:53;;;;;;;1999.90;999.90;;;6.80;99.90;;;;;;5055813;28;20033;-75
2022/12/30 11:43:20;;;;;;;1999.90;999.90;;;6.90;99.90;;;;;;5053267;28;20036;-75
2022/12/30 11:46:02;;;;;;;1270.72;938.38;;;7.00;99.90;;;;;;5050643;28;20029;-75
2022/12/30 11:48:43;;;;;;;894.15;801.53;;;6.80;99.90;;;;;;5060393;28;20117;-75
2022/12/30 11:51:43;;;;;;;1011.38;914.83;;;6.90;99.90;;;;;;5051299;28;20040;-74
2022/12/30 11:54:11;;;;;;;1168.45;999.90;;;6.90;99.90;;;;;;5057676;28;20122;-73
2022/12/30 11:56:50;;;;;;;1108.60;999.75;;;6.90;99.90;;;;;;5052336;28;20086;-73
2022/12/30 11:59:18;;;;;;;1171.82;999.90;;;7.10;99.90;;;;;;5058202;28;20064;-74
2022/12/30 12:01:46;;;;;;;1137.53;999.90;;;7.10;99.90;;;;;;5050453;28;20045;-72
2022/12/30 12:04:32;;;;;;;1212.50;999.90;;;7.00;99.90;;;;;;5033782;28;20042;-73
2022/12/30 12:06:59;;;;;;;1206.93;999.90;;;7.20;99.90;;;;;;5042556;28;20124;-72
2022/12/30 12:09:44;;;;;;;1287.65;999.90;;;7.30;99.90;;;;;;5046882;28;20418;-73
2022/12/30 12:12:17;;;;;;;1393.00;999.90;;;7.30;99.90;;;;;;5047288;28;20061;-73
2022/12/30 12:14:59;;;;;;;1182.38;999.90;;;7.20;99.90;;;;;;5048062;28;20049;-73
2022/12/30 12:17:41;;;;;;;1166.07;999.90;;;7.10;99.90;;;;;;5046575;28;20064;-73
2022/12/30 12:20:32;;;;;;;1138.13;999.90;;;7.10;99.90;;;;;;5039297;28;20091;-73
2022/12/30 12:23:01;;;;;;;1118.88;999.90;;;7.10;99.90;;;;;;5037985;28;20112;-73
2022/12/30 12:25:33;;;;;;;1143.10;999.90;;;7.20;99.90;;;;;;5050760;28;20037;-73
2022/12/30 12:27:59;;;;;;;1207.53;999.90;;;7.30;99.90;;;;;;5039012;28;20033;-72
2022/12/30 12:30:33;;;;;;;1126.10;999.90;;;7.30;99.90;;;;;;5051939;28;20027;-72
2022/12/30 12:33:17;;;;;;;1242.10;999.90;;;7.30;99.90;;;;;;5070547;28;20044;-73
2022/12/30 12:36:04;;;;;;;1103.90;999.90;;;7.60;99.90;;;;;;5070066;28;20120;-73
2022/12/30 12:38:40;;;;;;;1133.20;999.90;;;7.40;99.90;;;;;;5071357;28;20079;-61
2022/12/30 12:41:08;;;;;;;1133.03;999.90;;;7.40;99.90;;;;;;5064107;28;20025;-68
2022/12/30 12:43:34;;;;;;;1071.85;983.55;;;7.40;99.90;;;;;;5059318;28;20082;-70
2022/12/30 12:46:31;;;;;;;1158.82;999.90;;;7.40;99.90;;;;;;5062044;28;20036;-62
2022/12/30 12:49:29;;;;;;;1132.43;999.90;;;7.40;99.90;;;;;;5059747;28;20032;-72
2022/12/30 12:52:18;;;;;;;1119.25;999.90;;;7.40;99.90;;;;;;5053309;28;20025;-72
2022/12/30 12:55:15;;;;;;;1060.93;974.83;;;7.50;99.90;;;;;;5060837;28;20032;-73
2022/12/30 12:58:14;;;;;;;1147.65;999.90;;;7.30;99.90;;;;;;5059768;28;20032;-76
2022/12/30 13:01:06;;;;;;;1145.57;999.90;;;7.30;99.90;;;;;;5058975;28;20040;-75
2022/12/30 13:03:35;;;;;;;1170.75;999.90;;;7.20;99.90;;;;;;5059218;28;20033;-75
2022/12/30 13:06:25;;;;;;;1145.82;999.90;;;7.30;99.90;;;;;;5056268;28;20032;-75
2022/12/30 13:09:12;;;;;;;1164.75;999.90;;;7.20;99.90;;;;;;5055039;28;20146;-76
2022/12/30 13:11:44;;;;;;;1205.32;999.90;;;7.30;99.90;;;;;;5058992;28;20027;-75
2022/12/30 13:14:37;;;;;;;1431.80;999.90;;;7.30;99.90;;;;;;5061560;28;20031;-74
2022/12/30 13:17:25;;;;;;;1160.60;999.90;;;7.50;99.90;;;;;;5056562;28;20409;-72
2022/12/30 13:20:14;;;;;;;1122.28;999.90;;;7.30;99.90;;;;;;5059514;28;20095;-75
2022/12/30 13:22:40;;;;;;;1150.80;999.90;;;7.30;99.90;;;;;;5058517;28;20120;-78
2022/12/30 13:25:18;;;;;;;1181.50;999.90;;;7.50;99.90;;;;;;5062948;28;20119;-77
2022/12/30 13:27:46;;;;;;;1223.20;999.90;;;7.60;99.90;;;;;;5057199;28;20111;-77
2022/12/30 13:30:15;;;;;;;1217.82;999.90;;;7.60;99.90;;;;;;5062947;28;20327;-75